No data was retrieved for https://query.yahooapis.com/v1/public/yql?q=select+%2A+from+weather.forecast+where+woeid%3D731260&format=xml&u=c



METAR rapporten vliegvelden

   
EHAM - Amsterdam
Gewijzigd: 01-03-2021 13:25
Licht bewolkt  
Licht bewolkt  
   Wind: Oosten 16.7 km/h
Wind: Oosten 16.7 km/h
Temperatuur: 8°C
Voelt als: 5°C
Dauwpunt: 4°C
Vochtigheid: 76%
Barometer: 1034 hPa
Bewolking: Licht bewolkt
Zicht: meer dan 10 km
Bewolking: Licht bewolkt 1100 ft
EHAM 011225Z 10009KT 040V130 9999 FEW011 08/04 Q1034 NOSIG
EHBK - Maastricht
Gewijzigd: 01-03-2021 13:25
Helder  
Helder  
   Wind: NO 20.4 km/h
Wind: NO 20.4 km/h
Temperatuur: 10°C
Voelt als: 7°C
Dauwpunt: 4°C
Vochtigheid: 67%
Barometer: 1031 hPa
Bewolking: Helder
Zicht: meer dan 10 km
Bewolking: Helder
EHBK 011225Z AUTO 05011KT 020V090 9999 NCD 10/04 Q1031 NOSIG
ELLX - Luxemburg
Gewijzigd: 01-03-2021 13:20
Helder  
Helder  
   Wind: Oosten 14.8 km/h
Wind: Oosten 14.8 km/h
Temperatuur: 11°C
Dauwpunt: -2°C
Vochtigheid: 41%
Barometer: 1030 hPa
Zicht: meer dan 10 km
Bewolking: Helder
ELLX 011220Z 09008KT 050V140 CAVOK 11/M02 Q1030 NOSIG
EDDL - Dusseldorf
Gewijzigd: 01-03-2021 13:20
Helder  
Helder  
   Wind: Noorden 13 km/h
Wind: Noorden 13 km/h
Temperatuur: 9°C
Voelt als: 7°C
Dauwpunt: 4°C
Vochtigheid: 71%
Barometer: 1033 hPa
Zicht: meer dan 10 km
Bewolking: Helder
EDDL 011220Z 01007KT CAVOK 09/04 Q1033 NOSIG
  

Script ontwikkeld door  Saratoga-weather.org Aangepast voor de template door  Weerstation Leuven